Time;durP1;ratioP1;P1;durP2;ratioP2;P2;SDS_P1;SDS_P2;PMS_P1;PMS_P2;Temp;Humidity;BMP_temperature;BMP_pressure;BME280_temperature;BME280_humidity;BME280_pressure;Samples;Min_cycle;Max_cycle;Signal;HPM_P1;HPM_P2
2022/09/23 00:00:29;;;;;;;14.18;10.95;;;10.00;99.90;;;;;;5032335;28;20042;-86
2022/09/23 00:02:55;;;;;;;12.43;10.57;;;10.00;99.90;;;;;;5014980;28;20069;-86
2022/09/23 00:05:21;;;;;;;14.23;11.23;;;10.00;99.90;;;;;;5047779;28;20053;-86
2022/09/23 00:07:48;;;;;;;16.98;11.15;;;10.00;99.90;;;;;;5030472;28;20048;-86
2022/09/23 00:10:13;;;;;;;14.85;11.32;;;9.90;99.90;;;;;;5032389;28;20080;-86
2022/09/23 00:12:39;;;;;;;17.65;11.32;;;9.90;99.90;;;;;;5030417;28;20135;-86
2022/09/23 00:15:05;;;;;;;14.77;11.07;;;9.90;99.90;;;;;;5030889;28;20128;-86
2022/09/23 00:17:31;;;;;;;15.73;11.50;;;9.90;99.90;;;;;;5032346;28;20045;-88
2022/09/23 00:19:57;;;;;;;16.08;11.38;;;9.90;99.90;;;;;;5031002;28;20048;-86
2022/09/23 00:22:22;;;;;;;14.45;10.52;;;9.90;99.90;;;;;;5032531;28;20099;-86
2022/09/23 00:24:48;;;;;;;13.25;10.75;;;9.80;99.90;;;;;;5032478;28;20043;-86
2022/09/23 00:27:14;;;;;;;15.52;9.43;;;9.80;99.90;;;;;;5032353;28;20038;-86
2022/09/23 00:29:40;;;;;;;13.82;10.48;;;9.80;99.90;;;;;;5032166;28;20051;-87
2022/09/23 00:32:06;;;;;;;14.25;10.93;;;9.80;99.90;;;;;;5032052;28;20440;-86
2022/09/23 00:34:31;;;;;;;13.52;11.07;;;9.70;99.90;;;;;;5031421;28;20076;-86
2022/09/23 00:36:57;;;;;;;15.45;11.10;;;9.80;99.90;;;;;;5032097;28;20041;-86
2022/09/23 00:39:24;;;;;;;13.20;11.30;;;9.70;99.90;;;;;;5014350;28;20044;-86
2022/09/23 00:41:49;;;;;;;14.52;10.65;;;9.70;99.90;;;;;;5014827;28;20048;-87
2022/09/23 00:44:40;;;;;;;15.43;10.70;;;9.70;99.90;;;;;;5032087;28;20049;-86
2022/09/23 00:47:24;;;;;;;15.75;10.95;;;9.70;99.90;;;;;;5032968;28;20483;-86
2022/09/23 00:50:00;;;;;;;16.80;12.38;;;9.60;99.90;;;;;;5030005;28;20049;-86
2022/09/23 00:52:27;;;;;;;13.25;9.93;;;9.60;99.90;;;;;;5031959;28;20041;-86
2022/09/23 00:54:56;;;;;;;14.98;10.80;;;9.60;99.90;;;;;;5031214;28;20111;-86
2022/09/23 00:57:24;;;;;;;16.15;11.38;;;9.60;99.90;;;;;;5050536;28;20048;-86
2022/09/23 00:59:50;;;;;;;19.10;11.90;;;9.70;99.90;;;;;;5031323;28;20053;-86
2022/09/23 01:02:19;;;;;;;15.82;11.93;;;9.60;99.90;;;;;;5030836;28;20100;-85
2022/09/23 01:04:48;;;;;;;13.38;10.50;;;9.60;99.90;;;;;;5032632;28;20567;-86
2022/09/23 01:07:13;;;;;;;14.02;10.90;;;9.60;99.90;;;;;;5034234;28;20056;-85
2022/09/23 01:09:39;;;;;;;14.40;10.52;;;9.60;99.90;;;;;;5034456;28;20045;-86
2022/09/23 01:12:38;;;;;;;13.82;11.43;;;9.60;99.90;;;;;;5034990;28;20140;-85
2022/09/23 01:15:10;;;;;;;13.30;10.05;;;9.60;99.90;;;;;;5056300;28;20099;-85
2022/09/23 01:18:15;;;;;;;14.73;10.18;;;9.70;99.90;;;;;;5034973;28;20045;-86
2022/09/23 01:21:15;;;;;;;14.77;10.82;;;9.70;99.90;;;;;;5034935;28;20037;-86
2022/09/23 01:24:01;;;;;;;14.88;11.27;;;9.80;99.90;;;;;;5057276;28;20061;-85
2022/09/23 01:26:59;;;;;;;17.15;11.07;;;9.70;99.90;;;;;;5050226;28;20057;-86
2022/09/23 01:29:34;;;;;;;13.13;11.15;;;9.70;99.90;;;;;;5030190;28;20049;-86
2022/09/23 01:32:03;;;;;;;14.77;11.15;;;9.70;99.90;;;;;;5034740;28;20053;-85
2022/09/23 01:35:00;;;;;;;13.88;9.77;;;9.70;99.90;;;;;;5057641;28;20045;-86
2022/09/23 01:37:32;;;;;;;10.95;8.25;;;9.70;99.90;;;;;;5031665;28;20037;-86
2022/09/23 01:40:09;;;;;;;12.45;11.15;;;9.60;99.90;;;;;;5033866;28;20046;-85
2022/09/23 01:42:46;;;;;;;13.80;11.05;;;9.60;99.90;;;;;;5050569;28;20446;-85
2022/09/23 01:45:33;;;;;;;11.85;10.05;;;9.60;99.90;;;;;;5034531;28;20111;-86
2022/09/23 01:48:14;;;;;;;12.18;10.95;;;9.60;99.90;;;;;;5030568;28;20077;-86
2022/09/23 01:50:55;;;;;;;14.60;11.20;;;9.50;99.90;;;;;;5034765;28;20084;-85
2022/09/23 01:53:27;;;;;;;19.60;11.80;;;9.50;99.90;;;;;;5034710;28;20107;-86
2022/09/23 01:55:57;;;;;;;15.20;11.13;;;9.50;99.90;;;;;;5034622;28;20049;-85
2022/09/23 01:58:25;;;;;;;10.60;9.10;;;9.50;99.90;;;;;;5017585;28;20056;-86
2022/09/23 02:00:59;;;;;;;14.35;11.48;;;9.50;99.90;;;;;;5034143;28;20450;-86
2022/09/23 02:03:42;;;;;;;13.82;11.02;;;9.50;99.90;;;;;;5034786;28;20064;-86
2022/09/23 02:06:19;;;;;;;14.23;11.93;;;9.40;99.90;;;;;;5028074;28;20048;-86
2022/09/23 02:08:52;;;;;;;14.55;11.00;;;9.40;99.90;;;;;;5032485;28;20049;-87
2022/09/23 02:11:17;;;;;;;12.98;11.60;;;9.40;99.90;;;;;;5030384;28;20045;-85
2022/09/23 02:14:21;;;;;;;13.65;11.38;;;9.40;99.90;;;;;;5033591;28;20053;-85
2022/09/23 02:16:54;;;;;;;11.80;9.90;;;9.50;99.90;;;;;;5041234;28;20510;-86
2022/09/23 02:19:31;;;;;;;16.88;11.63;;;9.50;99.90;;;;;;5029498;28;20099;-85
2022/09/23 02:22:13;;;;;;;16.50;11.45;;;9.40;99.90;;;;;;5033500;28;20048;-86
2022/09/23 02:24:39;;;;;;;16.58;10.68;;;9.40;99.90;;;;;;5048887;28;20118;-86
2022/09/23 02:27:14;;;;;;;13.75;10.98;;;9.40;99.90;;;;;;5030491;28;20049;-85
2022/09/23 02:29:55;;;;;;;14.93;10.30;;;9.40;99.90;;;;;;5032142;28;20081;-89
2022/09/23 02:32:45;;;;;;;12.73;11.30;;;9.40;99.90;;;;;;5032513;28;20084;-87
2022/09/23 02:35:16;;;;;;;15.05;10.98;;;9.40;99.90;;;;;;5029165;28;20506;-86
2022/09/23 02:38:05;;;;;;;16.77;11.73;;;9.30;99.90;;;;;;5032724;28;20394;-86
2022/09/23 02:40:37;;;;;;;14.45;12.00;;;9.30;99.90;;;;;;5032324;28;20041;-86
2022/09/23 02:43:18;;;;;;;12.93;11.45;;;9.30;99.90;;;;;;5042742;28;20447;-86
2022/09/23 02:45:45;;;;;;;17.80;12.10;;;9.30;99.90;;;;;;5032885;28;20411;-86
2022/09/23 02:48:29;;;;;;;16.85;11.95;;;9.20;99.90;;;;;;5049108;28;20064;-86
2022/09/23 02:50:56;;;;;;;14.45;11.68;;;9.20;99.90;;;;;;5031087;28;20045;-88
2022/09/23 02:53:23;;;;;;;17.88;11.73;;;9.20;99.90;;;;;;5032956;28;20085;-85
2022/09/23 02:55:49;;;;;;;15.18;11.05;;;9.20;99.90;;;;;;5031896;28;20064;-85
2022/09/23 02:58:16;;;;;;;12.73;10.68;;;9.10;99.90;;;;;;5026615;28;20053;-86
2022/09/23 03:01:10;;;;;;;18.13;11.35;;;9.20;99.90;;;;;;5032407;28;20088;-87
2022/09/23 03:03:54;;;;;;;12.80;11.30;;;9.20;99.90;;;;;;5054515;28;20052;-86
2022/09/23 03:06:31;;;;;;;16.75;11.88;;;9.20;99.90;;;;;;5043511;28;20053;-85
2022/09/23 03:09:09;;;;;;;16.73;12.18;;;9.10;99.90;;;;;;5032111;28;20045;-85
2022/09/23 03:11:39;;;;;;;15.98;12.45;;;9.10;99.90;;;;;;5032181;28;20038;-86
2022/09/23 03:14:37;;;;;;;12.90;9.53;;;9.10;99.90;;;;;;5031244;28;20051;-85
2022/09/23 03:17:36;;;;;;;13.10;11.63;;;9.20;99.90;;;;;;5056413;28;20052;-85
2022/09/23 03:20:05;;;;;;;14.95;12.05;;;9.20;99.90;;;;;;5043781;28;20049;-85
2022/09/23 03:22:36;;;;;;;18.67;11.70;;;9.20;99.90;;;;;;5032577;28;20037;-85
2022/09/23 03:25:07;;;;;;;12.50;10.85;;;9.20;99.90;;;;;;5051316;28;20050;-86
2022/09/23 03:27:34;;;;;;;;;;;9.20;99.90;;;;;;5033142;28;20038;-85
2022/09/23 03:30:00;;;;;;;14.57;11.27;;;9.30;99.90;;;;;;5031980;28;19921;-85
2022/09/23 03:32:27;;;;;;;16.27;12.40;;;9.20;99.90;;;;;;5033953;28;20072;-85
2022/09/23 03:34:57;;;;;;;12.88;11.20;;;9.20;99.90;;;;;;5015218;28;20057;-86
2022/09/23 03:37:43;;;;;;;15.43;11.60;;;9.10;99.90;;;;;;5032718;28;20151;-85
2022/09/23 03:40:22;;;;;;;14.57;10.70;;;9.20;99.90;;;;;;5033164;28;20120;-85
2022/09/23 03:42:47;;;;;;;16.40;11.93;;;9.20;99.90;;;;;;5032414;28;20900;-86
2022/09/23 03:45:21;;;;;;;14.43;10.75;;;9.10;99.90;;;;;;5057098;28;20124;-86
2022/09/23 03:47:46;;;;;;;14.73;11.38;;;9.10;99.90;;;;;;5032696;28;20383;-85
2022/09/23 03:50:13;;;;;;;13.98;11.57;;;9.10;99.90;;;;;;5032463;28;20053;-86
2022/09/23 03:52:39;;;;;;;14.00;12.50;;;9.10;99.90;;;;;;5043176;28;20049;-86
2022/09/23 03:55:09;;;;;;;15.43;13.07;;;9.00;99.90;;;;;;5032327;28;20411;-86
2022/09/23 03:57:36;;;;;;;16.42;12.45;;;9.00;99.90;;;;;;5030758;28;20037;-85
2022/09/23 04:00:04;;;;;;;15.70;13.18;;;8.90;99.90;;;;;;5032378;28;20041;-86
2022/09/23 04:02:30;;;;;;;13.35;11.95;;;8.90;99.90;;;;;;5032281;28;20411;-85
2022/09/23 04:04:56;;;;;;;14.75;12.50;;;8.90;99.90;;;;;;5031396;28;20051;-85
2022/09/23 04:07:21;;;;;;;17.90;11.30;;;8.90;99.90;;;;;;5048123;28;20128;-85
2022/09/23 04:09:47;;;;;;;17.10;13.13;;;8.90;99.90;;;;;;5030982;28;20050;-86
2022/09/23 04:12:14;;;;;;;15.48;12.32;;;8.80;99.90;;;;;;5032159;28;20103;-85
2022/09/23 04:14:40;;;;;;;16.15;12.30;;;8.80;99.90;;;;;;5032192;28;20132;-85
2022/09/23 04:17:06;;;;;;;15.02;12.57;;;8.80;99.90;;;;;;5014017;28;20041;-85
2022/09/23 04:19:32;;;;;;;18.05;13.55;;;8.80;99.90;;;;;;5031004;28;20115;-87
2022/09/23 04:21:58;;;;;;;15.00;12.18;;;8.80;99.90;;;;;;5031052;28;20069;-85
2022/09/23 04:24:24;;;;;;;14.85;13.13;;;8.80;99.90;;;;;;5048053;28;20053;-86
2022/09/23 04:26:52;;;;;;;13.35;11.95;;;8.80;99.90;;;;;;5031067;28;20509;-85
2022/09/23 04:29:19;;;;;;;15.88;13.40;;;8.80;99.90;;;;;;5032162;28;20052;-85
2022/09/23 04:31:44;;;;;;;17.63;14.10;;;8.80;99.90;;;;;;5031096;28;20065;-86
2022/09/23 04:34:11;;;;;;;15.60;13.68;;;8.80;99.90;;;;;;5031240;28;20047;-86
2022/09/23 04:36:36;;;;;;;16.83;13.15;;;8.80;99.90;;;;;;5047609;28;20052;-85
2022/09/23 04:39:03;;;;;;;19.85;13.85;;;8.70;99.90;;;;;;5015049;28;20049;-86
2022/09/23 04:41:28;;;;;;;17.70;13.60;;;8.70;99.90;;;;;;5034879;28;20045;-86
2022/09/23 04:43:56;;;;;;;18.65;14.10;;;8.70;99.90;;;;;;5035989;28;20449;-86
2022/09/23 04:46:22;;;;;;;19.90;15.02;;;8.60;99.90;;;;;;5034735;28;20053;-86
2022/09/23 04:48:48;;;;;;;20.13;14.82;;;8.70;99.90;;;;;;5034864;28;20045;-85
2022/09/23 04:51:19;;;;;;;17.92;14.32;;;8.60;99.90;;;;;;5018498;28;20567;-89
2022/09/23 04:53:46;;;;;;;18.13;14.05;;;8.60;99.90;;;;;;5030841;28;20045;-85
2022/09/23 04:56:26;;;;;;;18.33;14.73;;;8.60;99.90;;;;;;5051275;28;20575;-85
2022/09/23 04:58:52;;;;;;;17.83;13.85;;;8.60;99.90;;;;;;5028614;28;20042;-85
2022/09/23 05:01:28;;;;;;;19.33;13.45;;;8.60;99.90;;;;;;5057149;28;20045;-86
2022/09/23 05:04:05;;;;;;;18.55;14.10;;;8.50;99.90;;;;;;5041471;28;20081;-85
2022/09/23 05:06:35;;;;;;;17.83;14.63;;;8.50;99.90;;;;;;5029626;28;20042;-86
2022/09/23 05:09:03;;;;;;;18.98;14.82;;;8.50;99.90;;;;;;5017838;28;20053;-85
2022/09/23 05:11:30;;;;;;;17.92;14.90;;;8.60;99.90;;;;;;5024018;28;20046;-85
2022/09/23 05:13:57;;;;;;;18.95;12.98;;;8.40;99.90;;;;;;5031885;28;20107;-86
2022/09/23 05:16:23;;;;;;;20.92;15.25;;;8.30;99.90;;;;;;5037277;28;20086;-85
2022/09/23 05:18:50;;;;;;;18.80;14.15;;;8.40;99.90;;;;;;5015977;28;20042;-85
2022/09/23 05:21:18;;;;;;;16.67;14.90;;;8.30;99.90;;;;;;5014826;28;20050;-85
2022/09/23 05:23:57;;;;;;;16.90;13.07;;;8.30;99.90;;;;;;5015895;28;20046;-86
2022/09/23 05:26:25;;;;;;;20.38;15.73;;;8.20;99.90;;;;;;5016352;28;20050;-85
2022/09/23 05:28:52;;;;;;;17.15;12.95;;;8.20;99.90;;;;;;5022258;28;20045;-86
2022/09/23 05:31:20;;;;;;;13.93;12.48;;;8.20;99.90;;;;;;5047750;28;20077;-86
2022/09/23 05:33:50;;;;;;;18.75;14.68;;;8.20;99.90;;;;;;5053193;28;20068;-86
2022/09/23 05:36:17;;;;;;;19.10;14.25;;;8.20;99.90;;;;;;5034308;28;20037;-86
2022/09/23 05:38:44;;;;;;;17.42;14.30;;;8.20;99.90;;;;;;5047876;28;20041;-86
2022/09/23 05:41:12;;;;;;;20.30;13.68;;;8.20;99.90;;;;;;5033369;28;20072;-86
2022/09/23 05:43:38;;;;;;;19.75;14.63;;;8.20;99.90;;;;;;5034733;28;20045;-85
2022/09/23 05:46:12;;;;;;;19.75;14.75;;;8.20;99.90;;;;;;5017838;28;20084;-85
2022/09/23 05:48:39;;;;;;;19.48;14.20;;;8.20;99.90;;;;;;5034419;28;20088;-85
2022/09/23 05:51:09;;;;;;;17.40;13.68;;;8.30;99.90;;;;;;5035529;28;20092;-85
2022/09/23 05:53:35;;;;;;;19.58;14.65;;;8.30;99.90;;;;;;5051375;28;20055;-85
2022/09/23 05:56:02;;;;;;;23.30;14.85;;;8.40;99.90;;;;;;5035308;28;20570;-85
2022/09/23 05:58:28;;;;;;;17.70;14.65;;;8.40;99.90;;;;;;5034313;28;20087;-85
2022/09/23 06:00:57;;;;;;;17.20;12.82;;;8.40;99.90;;;;;;5050752;28;20076;-88
2022/09/23 06:03:23;;;;;;;16.02;13.38;;;8.50;99.90;;;;;;5035376;28;20462;-85
2022/09/23 06:05:55;;;;;;;19.35;14.20;;;8.60;99.90;;;;;;5034033;28;20046;-85
2022/09/23 06:08:22;;;;;;;16.20;12.80;;;8.80;99.90;;;;;;5035630;28;20045;-85
2022/09/23 06:10:48;;;;;;;15.50;13.60;;;8.70;99.90;;;;;;5038258;28;20041;-85
2022/09/23 06:13:17;;;;;;;19.33;14.23;;;8.80;99.90;;;;;;5048931;28;20130;-86
2022/09/23 06:15:43;;;;;;;15.95;13.13;;;8.80;99.90;;;;;;5042816;28;20062;-85
2022/09/23 06:18:09;;;;;;;15.50;12.35;;;8.90;99.90;;;;;;5038586;28;20008;-85
2022/09/23 06:20:35;;;;;;;20.55;12.55;;;9.00;99.90;;;;;;5034451;28;20053;-85
2022/09/23 06:23:04;;;;;;;16.88;10.25;;;9.20;99.90;;;;;;5017762;28;20048;-85
2022/09/23 06:25:31;;;;;;;14.68;12.55;;;9.20;99.90;;;;;;5034061;28;20490;-86
2022/09/23 06:27:57;;;;;;;18.85;13.38;;;9.30;99.90;;;;;;5033689;28;20045;-86
2022/09/23 06:30:25;;;;;;;16.52;11.93;;;9.40;99.90;;;;;;5034831;28;20053;-85
2022/09/23 06:32:52;;;;;;;15.90;11.93;;;9.50;99.90;;;;;;5050982;28;20085;-85
2022/09/23 06:35:19;;;;;;;17.10;11.27;;;9.50;99.90;;;;;;5035081;28;20054;-85
2022/09/23 06:37:45;;;;;;;13.93;10.73;;;9.60;99.90;;;;;;5034626;28;20120;-85
2022/09/23 06:40:13;;;;;;;17.00;11.35;;;9.60;99.90;;;;;;5034799;28;20470;-85
2022/09/23 06:42:42;;;;;;;16.13;11.63;;;9.70;99.90;;;;;;5034623;28;20064;-85
2022/09/23 06:45:10;;;;;;;14.77;11.35;;;9.70;99.90;;;;;;5034712;28;20041;-85
2022/09/23 06:47:36;;;;;;;15.75;11.43;;;9.70;99.90;;;;;;5033258;28;20094;-85
2022/09/23 06:50:02;;;;;;;15.23;11.30;;;9.70;99.90;;;;;;5034561;28;20081;-85
2022/09/23 06:52:28;;;;;;;13.55;11.25;;;9.80;99.90;;;;;;5034435;28;20050;-85
2022/09/23 06:54:54;;;;;;;15.50;11.10;;;9.80;99.90;;;;;;5050416;28;20123;-85
2022/09/23 06:57:20;;;;;;;14.23;10.93;;;9.80;99.90;;;;;;5032771;28;20483;-86
2022/09/23 06:59:46;;;;;;;13.98;10.75;;;9.90;99.90;;;;;;5017046;28;20054;-85
2022/09/23 07:02:12;;;;;;;16.30;11.45;;;9.90;99.90;;;;;;5033728;28;20095;-85
2022/09/23 07:04:37;;;;;;;12.43;10.27;;;9.90;99.90;;;;;;5034252;28;20045;-85
2022/09/23 07:07:03;;;;;;;13.95;10.13;;;9.90;99.90;;;;;;5034178;28;20037;-85
2022/09/23 07:09:29;;;;;;;15.65;10.75;;;10.00;99.90;;;;;;5033094;28;20445;-85
2022/09/23 07:11:54;;;;;;;15.43;10.55;;;10.00;99.90;;;;;;5034002;28;20132;-86
2022/09/23 07:14:21;;;;;;;14.85;10.82;;;10.10;99.90;;;;;;5033213;28;20056;-86
2022/09/23 07:16:52;;;;;;;12.20;10.68;;;10.10;99.90;;;;;;5033015;28;20099;-88
2022/09/23 07:19:17;;;;;;;14.63;10.70;;;10.20;99.90;;;;;;5034141;28;20406;-86
2022/09/23 07:21:43;;;;;;;11.85;10.00;;;10.20;99.90;;;;;;5034218;28;20050;-85
2022/09/23 07:24:09;;;;;;;13.70;10.02;;;10.30;99.90;;;;;;5032785;28;20045;-85
2022/09/23 07:26:34;;;;;;;14.38;10.35;;;10.30;99.90;;;;;;5016341;28;20054;-86
2022/09/23 07:29:04;;;;;;;13.73;10.20;;;10.50;99.90;;;;;;5032861;28;20060;-86
2022/09/23 07:31:34;;;;;;;11.50;9.93;;;10.50;99.90;;;;;;5033880;28;20068;-85
2022/09/23 07:34:00;;;;;;;13.48;9.82;;;10.50;99.90;;;;;;5035490;28;20107;-86
2022/09/23 07:36:27;;;;;;;12.38;10.10;;;10.60;99.90;;;;;;5033749;28;20053;-85
2022/09/23 07:39:01;;;;;;;13.48;9.70;;;10.70;99.90;;;;;;5033592;28;20450;-85
2022/09/23 07:41:27;;;;;;;14.68;10.00;;;10.80;99.90;;;;;;5032859;28;20406;-85
2022/09/23 07:43:57;;;;;;;13.85;9.95;;;10.80;99.90;;;;;;5032865;28;20107;-85
2022/09/23 07:46:32;;;;;;;11.60;9.90;;;10.90;99.90;;;;;;5032458;28;20049;-86
2022/09/23 07:48:57;;;;;;;12.85;9.32;;;11.00;99.90;;;;;;5033070;28;20054;-85
2022/09/23 07:51:35;;;;;;;14.98;9.88;;;11.10;99.90;;;;;;5032207;28;20052;-86
2022/09/23 07:54:02;;;;;;;15.32;10.05;;;11.20;99.90;;;;;;5049441;28;20041;-85
2022/09/23 07:56:29;;;;;;;13.10;9.70;;;11.20;99.90;;;;;;5033593;28;20487;-85
2022/09/23 07:59:04;;;;;;;15.35;10.80;;;11.30;99.90;;;;;;5035971;28;20475;-85
2022/09/23 08:01:33;;;;;;;13.73;8.80;;;11.30;99.90;;;;;;5034891;28;20057;-85
2022/09/23 08:04:02;;;;;;;14.20;10.30;;;11.50;99.90;;;;;;5035678;28;20045;-85
2022/09/23 08:06:28;;;;;;;12.63;9.52;;;11.50;99.90;;;;;;5049360;28;20049;-86
2022/09/23 08:08:57;;;;;;;10.52;9.05;;;11.60;99.90;;;;;;5032550;28;20046;-85
2022/09/23 08:11:24;;;;;;;14.07;10.60;;;11.60;99.90;;;;;;5033777;28;20562;-85
2022/09/23 08:13:51;;;;;;;15.20;9.93;;;11.70;99.90;;;;;;5033986;28;20148;-86
2022/09/23 08:16:16;;;;;;;12.02;9.18;;;11.80;99.90;;;;;;5037052;28;20056;-85
2022/09/23 08:18:45;;;;;;;13.15;10.02;;;11.90;99.90;;;;;;5036266;28;20045;-86
2022/09/23 08:21:11;;;;;;;10.90;8.20;;;12.00;99.90;;;;;;5037646;28;20127;-86
2022/09/23 08:23:37;;;;;;;11.13;8.90;;;12.10;99.90;;;;;;5020507;28;20054;-86
2022/09/23 08:26:05;;;;;;;15.27;10.25;;;12.20;99.90;;;;;;5039357;28;20045;-86
2022/09/23 08:28:32;;;;;;;15.10;9.80;;;12.30;99.90;;;;;;5037176;28;20050;-87
2022/09/23 08:30:58;;;;;;;13.80;9.32;;;12.30;99.90;;;;;;5036241;28;20057;-87
2022/09/23 08:33:24;;;;;;;11.50;9.13;;;12.30;99.90;;;;;;5052356;28;20580;-86
2022/09/23 08:35:51;;;;;;;11.98;9.60;;;12.30;99.90;;;;;;5035689;28;20049;-86
2022/09/23 08:38:17;;;;;;;13.30;10.07;;;12.40;99.90;;;;;;5037091;28;20045;-85
2022/09/23 08:40:48;;;;;;;15.35;9.85;;;12.40;99.90;;;;;;5037681;28;20199;-85
2022/09/23 08:43:28;;;;;;;15.35;10.20;;;12.50;99.90;;;;;;5037296;28;20080;-85
2022/09/23 08:45:59;;;;;;;13.73;9.35;;;12.60;99.90;;;;;;5036766;28;20501;-86
2022/09/23 08:48:35;;;;;;;13.98;10.52;;;12.80;99.90;;;;;;5035911;28;20049;-85
2022/09/23 08:51:05;;;;;;;12.02;8.38;;;12.90;99.90;;;;;;5036677;28;20576;-85
2022/09/23 08:53:36;;;;;;;12.70;9.45;;;13.10;99.90;;;;;;5037172;28;20041;-86
2022/09/23 08:56:16;;;;;;;13.20;9.38;;;13.30;99.90;;;;;;5035658;28;20053;-86
2022/09/23 08:59:09;;;;;;;13.60;9.45;;;13.50;99.90;;;;;;5036956;28;20140;-85
2022/09/23 09:01:49;;;;;;;13.07;9.13;;;13.70;99.90;;;;;;5037152;28;20410;-86
2022/09/23 09:04:34;;;;;;;15.27;9.35;;;14.00;99.90;;;;;;5036666;28;20046;-86
2022/09/23 09:07:06;;;;;;;12.13;8.25;;;14.10;99.90;;;;;;5051957;28;20037;-85
2022/09/23 09:09:58;;;;;;;14.30;7.95;;;14.30;99.90;;;;;;5036571;28;20095;-85
2022/09/23 09:12:46;;;;;;;9.68;8.02;;;14.30;99.90;;;;;;5036762;28;20056;-86
2022/09/23 09:15:26;;;;;;;11.75;8.10;;;14.40;99.90;;;;;;5035516;28;20063;-86
2022/09/23 09:18:24;;;;;;;11.18;7.82;;;14.50;99.90;;;;;;5034580;28;20049;-86
2022/09/23 09:21:09;;;;;;;13.50;8.55;;;14.60;99.90;;;;;;5035522;28;20041;-86
2022/09/23 09:23:58;;;;;;;15.55;8.52;;;14.70;99.90;;;;;;5036005;28;20046;-86
2022/09/23 09:26:31;;;;;;;11.68;8.20;;;14.80;99.90;;;;;;5033770;28;20057;-86
2022/09/23 09:28:59;;;;;;;15.75;8.02;;;15.10;99.90;;;;;;5035272;28;20450;-87
2022/09/23 09:31:44;;;;;;;9.85;7.63;;;15.40;99.90;;;;;;5035476;28;20060;-86
2022/09/23 09:34:21;;;;;;;9.07;7.47;;;15.70;99.90;;;;;;5035260;28;20042;-86
2022/09/23 09:36:52;;;;;;;11.85;7.13;;;16.00;99.90;;;;;;5050413;28;20136;-86
2022/09/23 09:39:18;;;;;;;;;;;16.20;99.90;;;;;;5035365;28;20048;-86
2022/09/23 09:41:50;;;;;;;8.13;6.97;;;16.30;99.90;;;;;;5034790;28;19921;-86
2022/09/23 09:44:34;;;;;;;9.05;7.50;;;16.20;99.90;;;;;;5034381;28;20087;-86
2022/09/23 09:47:12;;;;;;;10.60;7.32;;;16.10;99.90;;;;;;5050176;28;20403;-86
2022/09/23 09:49:47;;;;;;;10.38;7.20;;;16.00;99.90;;;;;;5034127;28;20049;-86
2022/09/23 09:52:25;;;;;;;12.77;7.97;;;15.90;99.90;;;;;;5034071;28;20064;-86
2022/09/23 09:54:51;;;;;;;12.30;8.73;;;15.80;99.90;;;;;;5034780;28;20053;-86
2022/09/23 09:57:29;;;;;;;12.63;7.57;;;15.70;99.90;;;;;;5016986;28;20107;-86
2022/09/23 09:59:55;;;;;;;9.73;7.68;;;15.50;99.90;;;;;;5033887;28;20049;-86
2022/09/23 10:02:26;;;;;;;9.80;8.00;;;15.40;99.90;;;;;;5034637;28;20045;-86
2022/09/23 10:05:01;;;;;;;11.77;8.10;;;15.30;99.90;;;;;;5034731;28;20060;-85
2022/09/23 10:07:31;;;;;;;11.18;8.73;;;15.20;99.90;;;;;;5050333;28;20049;-86
2022/09/23 10:10:00;;;;;;;10.88;7.90;;;15.20;99.90;;;;;;5035397;28;20399;-86
2022/09/23 10:12:26;;;;;;;10.65;8.23;;;15.10;99.90;;;;;;5033774;28;20064;-86
2022/09/23 10:14:56;;;;;;;10.27;7.50;;;15.00;99.90;;;;;;4996820;28;1106500;-86
2022/09/23 10:17:35;;;;;;;10.68;8.32;;;15.00;99.90;;;;;;5034988;28;20148;-87
2022/09/23 10:20:07;;;;;;;11.13;8.30;;;15.10;99.90;;;;;;5035362;28;20132;-86
2022/09/23 10:22:38;;;;;;;10.82;9.02;;;15.10;99.90;;;;;;5035107;28;20046;-86
2022/09/23 10:25:26;;;;;;;12.52;9.40;;;15.20;99.90;;;;;;5034469;28;20450;-86
2022/09/23 10:27:52;;;;;;;11.98;8.10;;;15.30;99.90;;;;;;5034380;28;20049;-86
2022/09/23 10:30:26;;;;;;;13.15;8.50;;;15.30;99.90;;;;;;5035155;28;20111;-86
2022/09/23 10:32:55;;;;;;;12.15;7.82;;;15.40;99.90;;;;;;5035560;28;20087;-86
2022/09/23 10:35:23;;;;;;;11.25;8.38;;;15.50;99.90;;;;;;5034613;28;20053;-85
2022/09/23 10:37:55;;;;;;;12.40;7.97;;;15.50;99.90;;;;;;5033123;28;20088;-85
2022/09/23 10:47:19;;;;;;;14.98;8.05;;;15.80;99.90;;;;;;5034290;28;20064;-86
2022/09/23 10:50:06;;;;;;;11.60;7.90;;;15.90;99.90;;;;;;5038408;28;20045;-86
2022/09/23 10:53:00;;;;;;;14.80;8.35;;;16.00;99.90;;;;;;5033712;28;20058;-86
2022/09/23 10:55:52;;;;;;;10.68;7.78;;;16.00;99.90;;;;;;5033454;28;20513;-86
2022/09/23 10:58:35;;;;;;;13.40;7.38;;;16.10;99.90;;;;;;5033127;28;20042;-86
2022/09/23 11:01:13;;;;;;;12.70;7.70;;;16.10;99.90;;;;;;5033638;28;20402;-86
2022/09/23 11:04:01;;;;;;;13.75;7.78;;;16.10;99.90;;;;;;5033623;28;20053;-86
2022/09/23 11:07:34;;;;;;;11.63;7.63;;;16.10;99.90;;;;;;5035067;28;20385;-86
2022/09/23 11:10:17;;;;;;;10.25;7.30;;;16.20;99.90;;;;;;5050395;28;20057;-86
2022/09/23 11:13:28;;;;;;;8.50;7.53;;;16.20;99.90;;;;;;5051969;28;20064;-86
2022/09/23 11:16:03;;;;;;;12.25;8.00;;;16.20;99.90;;;;;;5014041;28;20050;-87
2022/09/23 11:18:56;;;;;;;8.57;7.07;;;16.20;99.90;;;;;;5014723;28;20041;-86
2022/09/23 11:21:33;;;;;;;13.55;7.00;;;16.20;99.90;;;;;;5014723;28;20111;-87
2022/09/23 11:24:16;;;;;;;10.23;7.28;;;16.20;99.90;;;;;;5013640;28;20048;-86
2022/09/23 11:27:11;;;;;;;10.30;7.20;;;16.20;99.90;;;;;;5015115;28;20479;-86
2022/09/23 11:29:58;;;;;;;10.98;7.22;;;16.20;99.90;;;;;;5029708;28;20463;-86
2022/09/23 11:32:47;;;;;;;12.35;7.10;;;16.20;99.90;;;;;;5013334;28;20092;-86
2022/09/23 11:35:26;;;;;;;8.73;7.28;;;16.30;99.90;;;;;;5031235;28;20100;-86
2022/09/23 11:38:09;;;;;;;10.32;6.93;;;16.30;99.90;;;;;;5014478;28;20469;-86
2022/09/23 11:40:41;;;;;;;12.13;7.40;;;16.30;99.90;;;;;;5014088;28;20081;-86
2022/09/23 11:43:23;;;;;;;11.02;7.53;;;16.30;99.90;;;;;;5013624;28;20052;-86
2022/09/23 11:45:57;;;;;;;9.73;7.18;;;16.30;99.90;;;;;;5014158;28;20054;-87
2022/09/23 11:48:32;;;;;;;12.75;8.20;;;16.30;99.90;;;;;;5014186;28;20057;-86
2022/09/23 11:51:35;;;;;;;11.43;7.93;;;16.30;99.90;;;;;;5012933;28;20472;-86
2022/09/23 11:54:09;;;;;;;12.95;7.82;;;16.30;99.90;;;;;;5033713;28;20062;-86
2022/09/23 11:56:45;;;;;;;10.57;7.35;;;16.30;99.90;;;;;;5029152;28;20095;-86
2022/09/23 11:59:30;;;;;;;11.63;7.03;;;16.30;99.90;;;;;;5013356;28;20050;-86
2022/09/23 12:02:07;;;;;;;10.20;7.13;;;16.30;99.90;;;;;;5013166;28;20054;-86
2022/09/23 12:04:39;;;;;;;10.52;7.88;;;16.30;99.90;;;;;;5014205;28;20053;-86
2022/09/23 12:07:16;;;;;;;10.65;7.70;;;16.30;99.90;;;;;;5013965;28;20042;-86
2022/09/23 12:10:04;;;;;;;15.43;7.72;;;16.30;99.90;;;;;;5014013;28;20058;-85
2022/09/23 12:12:35;;;;;;;8.77;6.78;;;16.30;99.90;;;;;;5013957;28;20183;-85
2022/09/23 12:15:36;;;;;;;9.13;6.82;;;16.30;99.90;;;;;;5033136;28;20388;-86
2022/09/23 12:18:09;;;;;;;12.48;7.47;;;16.40;99.90;;;;;;5033287;28;20136;-86
2022/09/23 12:20:47;;;;;;;9.60;6.20;;;16.30;99.90;;;;;;5032629;28;20384;-86
2022/09/23 12:23:15;;;;;;;10.27;6.25;;;16.30;99.90;;;;;;5033476;28;20049;-86
2022/09/23 12:25:53;;;;;;;8.32;6.50;;;16.30;99.90;;;;;;5033280;28;20050;-87
2022/09/23 12:28:25;;;;;;;7.75;6.25;;;16.30;99.90;;;;;;5032253;28;20399;-86
2022/09/23 12:30:54;;;;;;;8.00;6.30;;;16.20;99.90;;;;;;5032128;28;20049;-86
2022/09/23 12:33:26;;;;;;;10.10;6.28;;;16.20;99.90;;;;;;5033592;28;20049;-86
2022/09/23 12:36:03;;;;;;;12.40;6.97;;;16.20;99.90;;;;;;5033303;28;20403;-86
2022/09/23 12:38:34;;;;;;;7.90;6.22;;;16.30;99.90;;;;;;5033083;28;20060;-86
2022/09/23 12:41:07;;;;;;;8.32;6.75;;;16.20;99.90;;;;;;5032962;28;20061;-86
2022/09/23 12:43:34;;;;;;;11.88;6.68;;;16.30;99.90;;;;;;5031992;28;20049;-87
2022/09/23 12:46:29;;;;;;;11.65;5.97;;;16.20;99.90;;;;;;5048311;28;20402;-87
2022/09/23 12:48:56;;;;;;;13.27;6.68;;;16.20;99.90;;;;;;5048087;28;20053;-87
2022/09/23 12:51:23;;;;;;;11.55;6.35;;;16.20;99.90;;;;;;5033040;28;20402;-86
2022/09/23 12:53:58;;;;;;;7.30;5.85;;;16.20;99.90;;;;;;5032870;28;20132;-86
2022/09/23 12:56:47;;;;;;;10.05;6.50;;;16.20;99.90;;;;;;5031939;28;20457;-86
2022/09/23 12:59:18;;;;;;;11.65;6.88;;;16.20;99.90;;;;;;5034945;28;20076;-86
2022/09/23 13:01:44;;;;;;;8.73;6.85;;;16.30;99.90;;;;;;5051160;28;20584;-86
2022/09/23 13:07:32;;;;;;;10.85;6.13;;;16.20;99.90;;;;;;5035542;28;20082;-86
2022/09/23 13:10:24;;;;;;;11.27;6.88;;;16.20;99.90;;;;;;5035746;28;20049;-86
2022/09/23 13:12:51;;;;;;;11.82;6.82;;;16.30;99.90;;;;;;5035888;28;20049;-86
2022/09/23 13:15:32;;;;;;;9.90;7.47;;;16.20;99.90;;;;;;5035687;28;20395;-86
2022/09/23 13:18:20;;;;;;;10.20;6.47;;;16.30;99.90;;;;;;5036174;28;20452;-86